sensor_id;sensor_type;location;lat;lon;timestamp;P1;durP1;ratioP1;P2;durP2;ratioP2
59054;SDS011;44845;51.444;7.460;2023-07-31T00:01:04;3.67;;;1.63;;
59054;SDS011;44845;51.444;7.460;2023-07-31T00:03:29;8.93;;;2.33;;
59054;SDS011;44845;51.444;7.460;2023-07-31T00:05:55;8.40;;;2.28;;
59054;SDS011;44845;51.444;7.460;2023-07-31T00:08:20;13.10;;;2.85;;
59054;SDS011;44845;51.444;7.460;2023-07-31T00:10:45;7.20;;;2.55;;
59054;SDS011;44845;51.444;7.460;2023-07-31T00:13:11;6.40;;;2.33;;
59054;SDS011;44845;51.444;7.460;2023-07-31T00:15:36;5.18;;;2.40;;
59054;SDS011;44845;51.444;7.460;2023-07-31T00:18:01;5.60;;;2.22;;
59054;SDS011;44845;51.444;7.460;2023-07-31T00:20:27;4.82;;;2.45;;
59054;SDS011;44845;51.444;7.460;2023-07-31T00:22:52;11.25;;;3.25;;
59054;SDS011;44845;51.444;7.460;2023-07-31T00:25:18;3.70;;;1.92;;
59054;SDS011;44845;51.444;7.460;2023-07-31T00:27:43;5.18;;;1.90;;
59054;SDS011;44845;51.444;7.460;2023-07-31T00:30:10;4.22;;;2.10;;
59054;SDS011;44845;51.444;7.460;2023-07-31T00:32:36;10.35;;;2.38;;
59054;SDS011;44845;51.444;7.460;2023-07-31T00:35:02;7.57;;;2.30;;
59054;SDS011;44845;51.444;7.460;2023-07-31T00:37:27;6.00;;;2.85;;
59054;SDS011;44845;51.444;7.460;2023-07-31T00:39:53;5.45;;;2.05;;
59054;SDS011;44845;51.444;7.460;2023-07-31T00:42:18;8.70;;;2.60;;
59054;SDS011;44845;51.444;7.460;2023-07-31T00:44:43;9.73;;;3.05;;
59054;SDS011;44845;51.444;7.460;2023-07-31T00:47:09;5.65;;;2.75;;
59054;SDS011;44845;51.444;7.460;2023-07-31T00:49:34;13.27;;;2.50;;
59054;SDS011;44845;51.444;7.460;2023-07-31T00:51:59;8.07;;;2.50;;
59054;SDS011;44845;51.444;7.460;2023-07-31T00:54:27;10.75;;;2.50;;
59054;SDS011;44845;51.444;7.460;2023-07-31T00:56:52;5.90;;;2.63;;
59054;SDS011;44845;51.444;7.460;2023-07-31T00:59:19;6.95;;;2.63;;
59054;SDS011;44845;51.444;7.460;2023-07-31T01:01:44;10.35;;;3.35;;
59054;SDS011;44845;51.444;7.460;2023-07-31T01:04:10;9.70;;;2.55;;
59054;SDS011;44845;51.444;7.460;2023-07-31T01:06:38;9.65;;;2.70;;
59054;SDS011;44845;51.444;7.460;2023-07-31T01:09:29;8.80;;;3.08;;
59054;SDS011;44845;51.444;7.460;2023-07-31T01:12:14;8.60;;;3.23;;
59054;SDS011;44845;51.444;7.460;2023-07-31T01:15:02;8.27;;;3.60;;
59054;SDS011;44845;51.444;7.460;2023-07-31T01:17:28;10.18;;;3.55;;
59054;SDS011;44845;51.444;7.460;2023-07-31T01:19:58;11.57;;;2.88;;
59054;SDS011;44845;51.444;7.460;2023-07-31T01:25:32;8.60;;;3.40;;
59054;SDS011;44845;51.444;7.460;2023-07-31T01:28:24;9.15;;;3.88;;
59054;SDS011;44845;51.444;7.460;2023-07-31T01:30:54;11.05;;;3.42;;
59054;SDS011;44845;51.444;7.460;2023-07-31T01:33:22;8.02;;;2.90;;
59054;SDS011;44845;51.444;7.460;2023-07-31T01:35:48;10.38;;;3.05;;
59054;SDS011;44845;51.444;7.460;2023-07-31T01:38:14;7.35;;;3.17;;
59054;SDS011;44845;51.444;7.460;2023-07-31T01:40:42;8.10;;;3.30;;
59054;SDS011;44845;51.444;7.460;2023-07-31T01:43:08;9.48;;;3.55;;
59054;SDS011;44845;51.444;7.460;2023-07-31T01:45:33;19.63;;;3.70;;
59054;SDS011;44845;51.444;7.460;2023-07-31T01:47:59;10.75;;;3.05;;
59054;SDS011;44845;51.444;7.460;2023-07-31T01:50:24;12.18;;;3.78;;
59054;SDS011;44845;51.444;7.460;2023-07-31T01:52:49;10.65;;;3.03;;
59054;SDS011;44845;51.444;7.460;2023-07-31T01:55:15;8.80;;;2.88;;
59054;SDS011;44845;51.444;7.460;2023-07-31T01:57:40;7.85;;;2.80;;
59054;SDS011;44845;51.444;7.460;2023-07-31T02:00:05;11.02;;;3.13;;
59054;SDS011;44845;51.444;7.460;2023-07-31T02:02:31;8.35;;;3.25;;
59054;SDS011;44845;51.444;7.460;2023-07-31T02:04:57;7.57;;;3.10;;
59054;SDS011;44845;51.444;7.460;2023-07-31T02:07:22;10.63;;;3.22;;
59054;SDS011;44845;51.444;7.460;2023-07-31T02:09:47;11.25;;;3.08;;
59054;SDS011;44845;51.444;7.460;2023-07-31T02:12:13;11.38;;;3.00;;
59054;SDS011;44845;51.444;7.460;2023-07-31T02:14:39;5.90;;;2.80;;
59054;SDS011;44845;51.444;7.460;2023-07-31T02:17:05;7.45;;;3.08;;
59054;SDS011;44845;51.444;7.460;2023-07-31T02:19:31;8.15;;;3.33;;
59054;SDS011;44845;51.444;7.460;2023-07-31T02:21:56;7.78;;;2.50;;
59054;SDS011;44845;51.444;7.460;2023-07-31T02:24:21;8.55;;;2.95;;
59054;SDS011;44845;51.444;7.460;2023-07-31T02:26:47;7.10;;;2.78;;
59054;SDS011;44845;51.444;7.460;2023-07-31T02:29:12;6.97;;;3.10;;
59054;SDS011;44845;51.444;7.460;2023-07-31T02:31:37;10.30;;;2.83;;
59054;SDS011;44845;51.444;7.460;2023-07-31T02:34:03;9.63;;;2.70;;
59054;SDS011;44845;51.444;7.460;2023-07-31T02:36:28;10.60;;;2.63;;
59054;SDS011;44845;51.444;7.460;2023-07-31T02:38:53;9.43;;;2.85;;
59054;SDS011;44845;51.444;7.460;2023-07-31T02:41:19;13.75;;;3.00;;
59054;SDS011;44845;51.444;7.460;2023-07-31T02:43:44;11.82;;;3.38;;
59054;SDS011;44845;51.444;7.460;2023-07-31T02:46:09;11.38;;;3.30;;
59054;SDS011;44845;51.444;7.460;2023-07-31T02:48:35;11.10;;;3.20;;
59054;SDS011;44845;51.444;7.460;2023-07-31T02:51:00;10.32;;;3.25;;
59054;SDS011;44845;51.444;7.460;2023-07-31T02:53:25;7.97;;;3.20;;
59054;SDS011;44845;51.444;7.460;2023-07-31T02:55:51;6.30;;;3.03;;
59054;SDS011;44845;51.444;7.460;2023-07-31T02:58:16;11.52;;;3.30;;
59054;SDS011;44845;51.444;7.460;2023-07-31T03:00:42;9.88;;;3.17;;
59054;SDS011;44845;51.444;7.460;2023-07-31T03:03:08;7.00;;;2.95;;
59054;SDS011;44845;51.444;7.460;2023-07-31T03:05:33;8.18;;;3.03;;
59054;SDS011;44845;51.444;7.460;2023-07-31T03:07:59;10.60;;;3.50;;
59054;SDS011;44845;51.444;7.460;2023-07-31T03:10:24;9.63;;;3.15;;
59054;SDS011;44845;51.444;7.460;2023-07-31T03:12:49;7.10;;;2.85;;
59054;SDS011;44845;51.444;7.460;2023-07-31T03:15:15;15.38;;;3.60;;
59054;SDS011;44845;51.444;7.460;2023-07-31T03:17:40;14.13;;;3.40;;
59054;SDS011;44845;51.444;7.460;2023-07-31T03:20:06;9.45;;;3.65;;
59054;SDS011;44845;51.444;7.460;2023-07-31T03:22:31;6.90;;;3.45;;
59054;SDS011;44845;51.444;7.460;2023-07-31T03:24:57;9.07;;;3.22;;
59054;SDS011;44845;51.444;7.460;2023-07-31T03:27:22;13.65;;;3.80;;
59054;SDS011;44845;51.444;7.460;2023-07-31T03:29:47;11.85;;;3.40;;
59054;SDS011;44845;51.444;7.460;2023-07-31T03:32:14;9.07;;;3.90;;
59054;SDS011;44845;51.444;7.460;2023-07-31T03:34:40;9.50;;;2.95;;
59054;SDS011;44845;51.444;7.460;2023-07-31T03:37:05;11.38;;;3.65;;
59054;SDS011;44845;51.444;7.460;2023-07-31T03:39:30;12.70;;;3.55;;
59054;SDS011;44845;51.444;7.460;2023-07-31T03:41:56;15.13;;;3.38;;
59054;SDS011;44845;51.444;7.460;2023-07-31T03:44:21;9.23;;;2.83;;
59054;SDS011;44845;51.444;7.460;2023-07-31T03:46:46;11.02;;;3.58;;
59054;SDS011;44845;51.444;7.460;2023-07-31T03:49:12;10.07;;;3.58;;
59054;SDS011;44845;51.444;7.460;2023-07-31T03:51:37;14.43;;;3.40;;
59054;SDS011;44845;51.444;7.460;2023-07-31T03:54:03;10.32;;;3.45;;
59054;SDS011;44845;51.444;7.460;2023-07-31T03:56:28;12.23;;;3.95;;
59054;SDS011;44845;51.444;7.460;2023-07-31T03:58:54;7.55;;;3.05;;
59054;SDS011;44845;51.444;7.460;2023-07-31T04:01:19;14.85;;;3.40;;
59054;SDS011;44845;51.444;7.460;2023-07-31T04:03:45;8.75;;;3.00;;
59054;SDS011;44845;51.444;7.460;2023-07-31T04:06:10;10.73;;;3.20;;
59054;SDS011;44845;51.444;7.460;2023-07-31T04:08:35;11.25;;;3.28;;
59054;SDS011;44845;51.444;7.460;2023-07-31T04:11:01;17.00;;;3.75;;
59054;SDS011;44845;51.444;7.460;2023-07-31T04:13:26;9.00;;;2.92;;
59054;SDS011;44845;51.444;7.460;2023-07-31T04:15:54;11.25;;;3.25;;
59054;SDS011;44845;51.444;7.460;2023-07-31T04:18:19;9.52;;;3.35;;
59054;SDS011;44845;51.444;7.460;2023-07-31T04:20:45;9.90;;;3.50;;
59054;SDS011;44845;51.444;7.460;2023-07-31T04:23:10;15.27;;;3.25;;
59054;SDS011;44845;51.444;7.460;2023-07-31T04:25:36;14.25;;;3.40;;
59054;SDS011;44845;51.444;7.460;2023-07-31T04:28:01;11.40;;;3.33;;
59054;SDS011;44845;51.444;7.460;2023-07-31T04:30:26;12.32;;;3.60;;
59054;SDS011;44845;51.444;7.460;2023-07-31T04:32:52;8.63;;;2.85;;
59054;SDS011;44845;51.444;7.460;2023-07-31T04:35:17;8.38;;;3.00;;
59054;SDS011;44845;51.444;7.460;2023-07-31T04:37:43;9.18;;;3.60;;
59054;SDS011;44845;51.444;7.460;2023-07-31T04:40:09;14.93;;;3.83;;
59054;SDS011;44845;51.444;7.460;2023-07-31T04:42:35;7.70;;;3.10;;
59054;SDS011;44845;51.444;7.460;2023-07-31T04:45:00;13.70;;;3.65;;
59054;SDS011;44845;51.444;7.460;2023-07-31T04:47:26;14.35;;;3.70;;
59054;SDS011;44845;51.444;7.460;2023-07-31T04:49:51;9.45;;;3.03;;
59054;SDS011;44845;51.444;7.460;2023-07-31T04:52:16;10.70;;;3.33;;
59054;SDS011;44845;51.444;7.460;2023-07-31T04:54:42;11.98;;;3.00;;
59054;SDS011;44845;51.444;7.460;2023-07-31T04:57:07;8.23;;;3.20;;
59054;SDS011;44845;51.444;7.460;2023-07-31T04:59:32;10.55;;;3.35;;
59054;SDS011;44845;51.444;7.460;2023-07-31T05:01:58;9.73;;;3.25;;
59054;SDS011;44845;51.444;7.460;2023-07-31T05:04:23;13.25;;;3.60;;
59054;SDS011;44845;51.444;7.460;2023-07-31T05:06:48;9.77;;;3.60;;
59054;SDS011;44845;51.444;7.460;2023-07-31T05:09:14;10.45;;;3.72;;
59054;SDS011;44845;51.444;7.460;2023-07-31T05:11:39;8.88;;;3.58;;
59054;SDS011;44845;51.444;7.460;2023-07-31T05:14:05;11.60;;;3.75;;
59054;SDS011;44845;51.444;7.460;2023-07-31T05:16:31;9.98;;;3.58;;
59054;SDS011;44845;51.444;7.460;2023-07-31T05:18:56;11.27;;;3.53;;
59054;SDS011;44845;51.444;7.460;2023-07-31T05:21:21;7.68;;;3.00;;
59054;SDS011;44845;51.444;7.460;2023-07-31T05:23:47;11.23;;;3.40;;
59054;SDS011;44845;51.444;7.460;2023-07-31T05:26:13;9.73;;;4.07;;
59054;SDS011;44845;51.444;7.460;2023-07-31T05:28:38;10.63;;;3.25;;
59054;SDS011;44845;51.444;7.460;2023-07-31T05:31:04;9.63;;;3.10;;
59054;SDS011;44845;51.444;7.460;2023-07-31T05:33:30;12.57;;;3.95;;
59054;SDS011;44845;51.444;7.460;2023-07-31T05:35:56;7.32;;;3.15;;
59054;SDS011;44845;51.444;7.460;2023-07-31T05:38:21;8.65;;;3.60;;
59054;SDS011;44845;51.444;7.460;2023-07-31T05:40:47;13.82;;;3.75;;
59054;SDS011;44845;51.444;7.460;2023-07-31T05:43:12;9.38;;;3.88;;
59054;SDS011;44845;51.444;7.460;2023-07-31T05:45:38;9.25;;;3.35;;
59054;SDS011;44845;51.444;7.460;2023-07-31T05:48:03;13.13;;;3.80;;
59054;SDS011;44845;51.444;7.460;2023-07-31T05:50:29;8.38;;;3.40;;
59054;SDS011;44845;51.444;7.460;2023-07-31T05:52:55;10.90;;;3.47;;
59054;SDS011;44845;51.444;7.460;2023-07-31T05:55:20;8.70;;;3.60;;
59054;SDS011;44845;51.444;7.460;2023-07-31T05:57:46;9.05;;;3.63;;
59054;SDS011;44845;51.444;7.460;2023-07-31T06:00:12;12.02;;;3.60;;
59054;SDS011;44845;51.444;7.460;2023-07-31T06:02:38;8.90;;;3.67;;
59054;SDS011;44845;51.444;7.460;2023-07-31T06:05:03;14.75;;;4.05;;
59054;SDS011;44845;51.444;7.460;2023-07-31T06:07:31;7.55;;;3.80;;
59054;SDS011;44845;51.444;7.460;2023-07-31T06:09:59;10.73;;;4.03;;
59054;SDS011;44845;51.444;7.460;2023-07-31T06:12:29;9.88;;;3.80;;
59054;SDS011;44845;51.444;7.460;2023-07-31T06:14:56;10.73;;;3.90;;
59054;SDS011;44845;51.444;7.460;2023-07-31T06:17:21;7.10;;;3.40;;
59054;SDS011;44845;51.444;7.460;2023-07-31T06:19:46;10.98;;;3.20;;
59054;SDS011;44845;51.444;7.460;2023-07-31T06:22:12;9.80;;;3.42;;
59054;SDS011;44845;51.444;7.460;2023-07-31T06:24:37;8.93;;;3.63;;
59054;SDS011;44845;51.444;7.460;2023-07-31T06:27:03;12.57;;;3.90;;
59054;SDS011;44845;51.444;7.460;2023-07-31T06:29:29;11.30;;;3.95;;
59054;SDS011;44845;51.444;7.460;2023-07-31T06:31:55;8.57;;;3.95;;
59054;SDS011;44845;51.444;7.460;2023-07-31T06:34:20;7.75;;;3.83;;
59054;SDS011;44845;51.444;7.460;2023-07-31T06:36:45;9.95;;;3.85;;
59054;SDS011;44845;51.444;7.460;2023-07-31T06:39:11;9.52;;;4.55;;
59054;SDS011;44845;51.444;7.460;2023-07-31T06:41:36;7.75;;;3.75;;
59054;SDS011;44845;51.444;7.460;2023-07-31T06:44:01;11.32;;;3.78;;
59054;SDS011;44845;51.444;7.460;2023-07-31T06:46:27;8.30;;;4.00;;
59054;SDS011;44845;51.444;7.460;2023-07-31T06:48:52;8.52;;;3.72;;
59054;SDS011;44845;51.444;7.460;2023-07-31T06:51:18;11.43;;;3.92;;
59054;SDS011;44845;51.444;7.460;2023-07-31T06:53:43;8.80;;;4.22;;
59054;SDS011;44845;51.444;7.460;2023-07-31T06:56:10;7.30;;;3.97;;
59054;SDS011;44845;51.444;7.460;2023-07-31T06:58:35;8.90;;;3.50;;
59054;SDS011;44845;51.444;7.460;2023-07-31T07:01:00;10.95;;;3.88;;
59054;SDS011;44845;51.444;7.460;2023-07-31T07:03:27;11.18;;;3.90;;
59054;SDS011;44845;51.444;7.460;2023-07-31T07:05:52;8.80;;;3.60;;
59054;SDS011;44845;51.444;7.460;2023-07-31T07:08:17;10.52;;;3.33;;
59054;SDS011;44845;51.444;7.460;2023-07-31T07:10:43;6.57;;;3.58;;
59054;SDS011;44845;51.444;7.460;2023-07-31T07:13:08;7.82;;;3.60;;
59054;SDS011;44845;51.444;7.460;2023-07-31T07:15:34;8.15;;;3.35;;
59054;SDS011;44845;51.444;7.460;2023-07-31T07:17:59;6.63;;;3.60;;
59054;SDS011;44845;51.444;7.460;2023-07-31T07:20:25;11.63;;;3.72;;
59054;SDS011;44845;51.444;7.460;2023-07-31T07:22:50;5.43;;;3.30;;
59054;SDS011;44845;51.444;7.460;2023-07-31T07:25:16;7.32;;;3.33;;
59054;SDS011;44845;51.444;7.460;2023-07-31T07:27:41;7.38;;;3.28;;
59054;SDS011;44845;51.444;7.460;2023-07-31T07:30:06;7.05;;;3.88;;
59054;SDS011;44845;51.444;7.460;2023-07-31T07:32:32;8.15;;;3.17;;
59054;SDS011;44845;51.444;7.460;2023-07-31T07:34:57;11.43;;;3.13;;
59054;SDS011;44845;51.444;7.460;2023-07-31T07:37:23;5.03;;;2.92;;
59054;SDS011;44845;51.444;7.460;2023-07-31T07:39:48;5.35;;;3.17;;
59054;SDS011;44845;51.444;7.460;2023-07-31T07:42:14;5.72;;;2.83;;
59054;SDS011;44845;51.444;7.460;2023-07-31T07:44:39;6.90;;;3.15;;
59054;SDS011;44845;51.444;7.460;2023-07-31T07:47:04;11.93;;;3.22;;
59054;SDS011;44845;51.444;7.460;2023-07-31T07:49:33;8.13;;;2.88;;
59054;SDS011;44845;51.444;7.460;2023-07-31T07:52:00;7.18;;;3.42;;
59054;SDS011;44845;51.444;7.460;2023-07-31T07:54:25;5.95;;;3.17;;
59054;SDS011;44845;51.444;7.460;2023-07-31T07:56:51;5.55;;;2.85;;
59054;SDS011;44845;51.444;7.460;2023-07-31T07:59:16;7.13;;;3.10;;
59054;SDS011;44845;51.444;7.460;2023-07-31T08:01:42;8.52;;;3.17;;
59054;SDS011;44845;51.444;7.460;2023-07-31T08:04:07;5.65;;;3.00;;
59054;SDS011;44845;51.444;7.460;2023-07-31T08:06:32;13.13;;;3.83;;
59054;SDS011;44845;51.444;7.460;2023-07-31T08:08:58;5.35;;;3.20;;
59054;SDS011;44845;51.444;7.460;2023-07-31T08:11:24;5.50;;;3.17;;
59054;SDS011;44845;51.444;7.460;2023-07-31T08:13:49;4.10;;;2.50;;
59054;SDS011;44845;51.444;7.460;2023-07-31T08:16:15;7.72;;;3.15;;
59054;SDS011;44845;51.444;7.460;2023-07-31T08:18:41;6.68;;;2.95;;
59054;SDS011;44845;51.444;7.460;2023-07-31T08:21:07;4.65;;;3.17;;
59054;SDS011;44845;51.444;7.460;2023-07-31T08:23:33;8.48;;;3.08;;
59054;SDS011;44845;51.444;7.460;2023-07-31T08:25:58;7.95;;;2.90;;
59054;SDS011;44845;51.444;7.460;2023-07-31T08:28:23;8.95;;;3.15;;
59054;SDS011;44845;51.444;7.460;2023-07-31T08:30:49;9.18;;;2.95;;
59054;SDS011;44845;51.444;7.460;2023-07-31T08:33:17;6.15;;;2.80;;
59054;SDS011;44845;51.444;7.460;2023-07-31T08:35:42;9.38;;;2.88;;
59054;SDS011;44845;51.444;7.460;2023-07-31T08:38:07;7.38;;;3.10;;
59054;SDS011;44845;51.444;7.460;2023-07-31T08:40:35;5.32;;;2.83;;
59054;SDS011;44845;51.444;7.460;2023-07-31T08:43:01;5.63;;;2.70;;
59054;SDS011;44845;51.444;7.460;2023-07-31T08:45:27;5.68;;;2.80;;
59054;SDS011;44845;51.444;7.460;2023-07-31T08:47:53;8.77;;;2.60;;
59054;SDS011;44845;51.444;7.460;2023-07-31T08:50:21;4.45;;;2.45;;
59054;SDS011;44845;51.444;7.460;2023-07-31T08:52:47;5.28;;;2.58;;
59054;SDS011;44845;51.444;7.460;2023-07-31T08:55:13;8.02;;;2.40;;
59054;SDS011;44845;51.444;7.460;2023-07-31T08:57:39;7.07;;;2.50;;
59054;SDS011;44845;51.444;7.460;2023-07-31T09:00:05;7.32;;;2.40;;
59054;SDS011;44845;51.444;7.460;2023-07-31T09:05:06;5.97;;;2.42;;
59054;SDS011;44845;51.444;7.460;2023-07-31T09:07:33;8.20;;;2.30;;
59054;SDS011;44845;51.444;7.460;2023-07-31T09:09:59;4.63;;;1.90;;
59054;SDS011;44845;51.444;7.460;2023-07-31T09:12:25;4.00;;;2.20;;
59054;SDS011;44845;51.444;7.460;2023-07-31T09:14:51;3.50;;;1.90;;
59054;SDS011;44845;51.444;7.460;2023-07-31T09:17:16;5.68;;;1.90;;
59054;SDS011;44845;51.444;7.460;2023-07-31T09:20:14;4.18;;;1.95;;
59054;SDS011;44845;51.444;7.460;2023-07-31T09:22:44;4.95;;;1.60;;
59054;SDS011;44845;51.444;7.460;2023-07-31T09:30:24;3.35;;;1.90;;
59054;SDS011;44845;51.444;7.460;2023-07-31T09:32:50;3.88;;;2.05;;
59054;SDS011;44845;51.444;7.460;2023-07-31T09:38:06;3.92;;;1.80;;
59054;SDS011;44845;51.444;7.460;2023-07-31T09:40:34;3.45;;;2.03;;
59054;SDS011;44845;51.444;7.460;2023-07-31T09:43:05;3.17;;;2.10;;
59054;SDS011;44845;51.444;7.460;2023-07-31T09:45:36;2.83;;;2.05;;
59054;SDS011;44845;51.444;7.460;2023-07-31T09:48:03;4.30;;;2.03;;
59054;SDS011;44845;51.444;7.460;2023-07-31T09:50:34;3.40;;;2.38;;
59054;SDS011;44845;51.444;7.460;2023-07-31T09:53:02;2.80;;;2.30;;
59054;SDS011;44845;51.444;7.460;2023-07-31T09:55:27;3.97;;;2.53;;
59054;SDS011;44845;51.444;7.460;2023-07-31T09:57:54;2.20;;;2.00;;
59054;SDS011;44845;51.444;7.460;2023-07-31T10:00:22;2.50;;;1.83;;
59054;SDS011;44845;51.444;7.460;2023-07-31T10:02:50;3.80;;;2.05;;
59054;SDS011;44845;51.444;7.460;2023-07-31T10:05:16;4.15;;;1.80;;
59054;SDS011;44845;51.444;7.460;2023-07-31T10:07:42;3.85;;;1.88;;
59054;SDS011;44845;51.444;7.460;2023-07-31T10:10:15;2.88;;;2.20;;
59054;SDS011;44845;51.444;7.460;2023-07-31T10:12:41;5.55;;;1.92;;
59054;SDS011;44845;51.444;7.460;2023-07-31T10:15:08;3.05;;;1.73;;
59054;SDS011;44845;51.444;7.460;2023-07-31T10:17:35;4.25;;;1.80;;
59054;SDS011;44845;51.444;7.460;2023-07-31T10:20:01;2.63;;;1.70;;
59054;SDS011;44845;51.444;7.460;2023-07-31T10:22:29;2.35;;;1.60;;
59054;SDS011;44845;51.444;7.460;2023-07-31T10:24:55;2.67;;;1.65;;
59054;SDS011;44845;51.444;7.460;2023-07-31T10:27:23;4.20;;;1.65;;
59054;SDS011;44845;51.444;7.460;2023-07-31T10:29:48;2.78;;;1.50;;
59054;SDS011;44845;51.444;7.460;2023-07-31T10:32:15;2.08;;;1.20;;
59054;SDS011;44845;51.444;7.460;2023-07-31T10:34:42;4.38;;;1.35;;
59054;SDS011;44845;51.444;7.460;2023-07-31T10:45:13;5.25;;;1.35;;
59054;SDS011;44845;51.444;7.460;2023-07-31T10:47:42;6.32;;;1.00;;
59054;SDS011;44845;51.444;7.460;2023-07-31T10:50:13;2.08;;;0.80;;
59054;SDS011;44845;51.444;7.460;2023-07-31T10:52:43;2.03;;;0.95;;
59054;SDS011;44845;51.444;7.460;2023-07-31T10:55:16;2.20;;;0.90;;
59054;SDS011;44845;51.444;7.460;2023-07-31T10:57:50;1.10;;;0.90;;
59054;SDS011;44845;51.444;7.460;2023-07-31T11:00:17;3.53;;;1.15;;
59054;SDS011;44845;51.444;7.460;2023-07-31T11:02:55;1.20;;;0.80;;
59054;SDS011;44845;51.444;7.460;2023-07-31T11:05:51;1.60;;;1.05;;
59054;SDS011;44845;51.444;7.460;2023-07-31T11:08:29;2.80;;;1.10;;
59054;SDS011;44845;51.444;7.460;2023-07-31T11:13:32;4.80;;;1.33;;
59054;SDS011;44845;51.444;7.460;2023-07-31T11:15:59;2.35;;;0.88;;
59054;SDS011;44845;51.444;7.460;2023-07-31T11:18:25;1.48;;;1.00;;
59054;SDS011;44845;51.444;7.460;2023-07-31T11:20:52;2.60;;;1.23;;
59054;SDS011;44845;51.444;7.460;2023-07-31T11:23:19;1.50;;;1.23;;
59054;SDS011;44845;51.444;7.460;2023-07-31T11:25:44;2.83;;;1.15;;
59054;SDS011;44845;51.444;7.460;2023-07-31T11:28:13;2.15;;;1.20;;
59054;SDS011;44845;51.444;7.460;2023-07-31T11:30:40;1.33;;;1.23;;
59054;SDS011;44845;51.444;7.460;2023-07-31T11:33:07;4.68;;;1.85;;
59054;SDS011;44845;51.444;7.460;2023-07-31T11:35:34;4.03;;;1.70;;
59054;SDS011;44845;51.444;7.460;2023-07-31T11:38:01;2.10;;;1.60;;
59054;SDS011;44845;51.444;7.460;2023-07-31T11:40:27;2.33;;;1.63;;
59054;SDS011;44845;51.444;7.460;2023-07-31T11:43:04;2.00;;;1.60;;
59054;SDS011;44845;51.444;7.460;2023-07-31T11:45:29;3.35;;;1.83;;
59054;SDS011;44845;51.444;7.460;2023-07-31T11:47:55;5.28;;;2.45;;
59054;SDS011;44845;51.444;7.460;2023-07-31T11:50:22;5.30;;;2.30;;
59054;SDS011;44845;51.444;7.460;2023-07-31T11:52:50;6.05;;;2.30;;
59054;SDS011;44845;51.444;7.460;2023-07-31T11:55:19;3.67;;;2.40;;
59054;SDS011;44845;51.444;7.460;2023-07-31T11:57:45;4.80;;;2.92;;
59054;SDS011;44845;51.444;7.460;2023-07-31T12:00:11;9.27;;;2.80;;
59054;SDS011;44845;51.444;7.460;2023-07-31T12:02:39;5.68;;;2.50;;
59054;SDS011;44845;51.444;7.460;2023-07-31T12:05:05;4.47;;;3.00;;
59054;SDS011;44845;51.444;7.460;2023-07-31T12:07:47;2.95;;;2.30;;
59054;SDS011;44845;51.444;7.460;2023-07-31T12:10:24;3.80;;;2.60;;
59054;SDS011;44845;51.444;7.460;2023-07-31T12:15:32;3.10;;;2.30;;
59054;SDS011;44845;51.444;7.460;2023-07-31T12:18:14;4.88;;;2.55;;
59054;SDS011;44845;51.444;7.460;2023-07-31T12:20:41;6.40;;;2.42;;
59054;SDS011;44845;51.444;7.460;2023-07-31T12:23:12;4.25;;;2.38;;
59054;SDS011;44845;51.444;7.460;2023-07-31T12:25:41;6.28;;;2.90;;
59054;SDS011;44845;51.444;7.460;2023-07-31T12:28:07;6.95;;;2.30;;
59054;SDS011;44845;51.444;7.460;2023-07-31T12:30:36;3.58;;;2.15;;
59054;SDS011;44845;51.444;7.460;2023-07-31T12:33:04;7.25;;;2.25;;
59054;SDS011;44845;51.444;7.460;2023-07-31T12:35:34;3.30;;;1.90;;
59054;SDS011;44845;51.444;7.460;2023-07-31T12:38:01;5.20;;;1.88;;
59054;SDS011;44845;51.444;7.460;2023-07-31T12:40:27;3.55;;;1.83;;
59054;SDS011;44845;51.444;7.460;2023-07-31T12:42:52;3.75;;;1.70;;
59054;SDS011;44845;51.444;7.460;2023-07-31T12:45:18;4.53;;;1.92;;
59054;SDS011;44845;51.444;7.460;2023-07-31T12:47:43;2.72;;;1.67;;
59054;SDS011;44845;51.444;7.460;2023-07-31T12:50:09;3.33;;;1.55;;
59054;SDS011;44845;51.444;7.460;2023-07-31T12:52:34;4.93;;;1.42;;
59054;SDS011;44845;51.444;7.460;2023-07-31T12:54:59;6.35;;;1.80;;
59054;SDS011;44845;51.444;7.460;2023-07-31T12:57:25;2.85;;;1.30;;
59054;SDS011;44845;51.444;7.460;2023-07-31T12:59:50;3.33;;;1.45;;
59054;SDS011;44845;51.444;7.460;2023-07-31T13:02:15;2.15;;;1.50;;
59054;SDS011;44845;51.444;7.460;2023-07-31T13:04:41;3.70;;;1.40;;
59054;SDS011;44845;51.444;7.460;2023-07-31T13:07:06;2.78;;;1.20;;
59054;SDS011;44845;51.444;7.460;2023-07-31T13:09:32;3.72;;;1.80;;
59054;SDS011;44845;51.444;7.460;2023-07-31T13:11:57;5.75;;;1.30;;
59054;SDS011;44845;51.444;7.460;2023-07-31T13:14:22;3.40;;;1.50;;
59054;SDS011;44845;51.444;7.460;2023-07-31T13:16:48;2.42;;;1.20;;
59054;SDS011;44845;51.444;7.460;2023-07-31T13:19:13;2.17;;;1.17;;
59054;SDS011;44845;51.444;7.460;2023-07-31T13:21:38;4.18;;;1.77;;
59054;SDS011;44845;51.444;7.460;2023-07-31T13:24:05;5.53;;;1.30;;
59054;SDS011;44845;51.444;7.460;2023-07-31T13:26:30;1.83;;;1.27;;
59054;SDS011;44845;51.444;7.460;2023-07-31T13:28:56;3.42;;;1.30;;
59054;SDS011;44845;51.444;7.460;2023-07-31T13:31:21;1.83;;;1.00;;
59054;SDS011;44845;51.444;7.460;2023-07-31T13:33:46;3.85;;;1.25;;
59054;SDS011;44845;51.444;7.460;2023-07-31T13:36:12;1.67;;;1.30;;
59054;SDS011;44845;51.444;7.460;2023-07-31T13:38:39;3.45;;;2.05;;
59054;SDS011;44845;51.444;7.460;2023-07-31T13:41:04;4.85;;;0.95;;
59054;SDS011;44845;51.444;7.460;2023-07-31T13:43:30;2.78;;;1.00;;
59054;SDS011;44845;51.444;7.460;2023-07-31T13:45:56;4.60;;;1.20;;
59054;SDS011;44845;51.444;7.460;2023-07-31T13:48:21;2.38;;;1.17;;
59054;SDS011;44845;51.444;7.460;2023-07-31T13:50:46;2.70;;;1.13;;
59054;SDS011;44845;51.444;7.460;2023-07-31T13:53:12;1.30;;;1.20;;
59054;SDS011;44845;51.444;7.460;2023-07-31T13:55:37;4.07;;;1.30;;
59054;SDS011;44845;51.444;7.460;2023-07-31T13:58:03;1.42;;;1.30;;
59054;SDS011;44845;51.444;7.460;2023-07-31T14:00:28;1.73;;;1.63;;
59054;SDS011;44845;51.444;7.460;2023-07-31T14:02:54;2.38;;;1.75;;
59054;SDS011;44845;51.444;7.460;2023-07-31T14:05:19;2.83;;;1.67;;
59054;SDS011;44845;51.444;7.460;2023-07-31T14:07:45;1.40;;;1.30;;
59054;SDS011;44845;51.444;7.460;2023-07-31T14:10:10;2.15;;;1.50;;
59054;SDS011;44845;51.444;7.460;2023-07-31T14:12:36;3.38;;;1.60;;
59054;SDS011;44845;51.444;7.460;2023-07-31T14:15:01;2.72;;;1.50;;
59054;SDS011;44845;51.444;7.460;2023-07-31T14:17:27;3.38;;;1.80;;
59054;SDS011;44845;51.444;7.460;2023-07-31T14:19:52;4.85;;;1.58;;
59054;SDS011;44845;51.444;7.460;2023-07-31T14:22:27;5.47;;;2.03;;
59054;SDS011;44845;51.444;7.460;2023-07-31T14:24:53;6.90;;;2.10;;
59054;SDS011;44845;51.444;7.460;2023-07-31T14:27:19;3.72;;;2.10;;
59054;SDS011;44845;51.444;7.460;2023-07-31T14:29:44;6.35;;;2.58;;
59054;SDS011;44845;51.444;7.460;2023-07-31T14:32:09;2.58;;;2.08;;
59054;SDS011;44845;51.444;7.460;2023-07-31T14:34:35;6.22;;;2.40;;
59054;SDS011;44845;51.444;7.460;2023-07-31T14:37:00;5.50;;;2.65;;
59054;SDS011;44845;51.444;7.460;2023-07-31T14:39:25;6.45;;;2.40;;
59054;SDS011;44845;51.444;7.460;2023-07-31T14:41:51;5.95;;;2.63;;
59054;SDS011;44845;51.444;7.460;2023-07-31T14:44:16;6.30;;;2.50;;
59054;SDS011;44845;51.444;7.460;2023-07-31T14:46:41;6.75;;;2.50;;
59054;SDS011;44845;51.444;7.460;2023-07-31T14:49:07;5.22;;;2.40;;
59054;SDS011;44845;51.444;7.460;2023-07-31T14:51:32;4.35;;;2.60;;
59054;SDS011;44845;51.444;7.460;2023-07-31T14:53:57;4.78;;;2.80;;
59054;SDS011;44845;51.444;7.460;2023-07-31T14:56:23;3.65;;;2.60;;
59054;SDS011;44845;51.444;7.460;2023-07-31T14:58:48;5.70;;;2.88;;
59054;SDS011;44845;51.444;7.460;2023-07-31T15:01:13;3.78;;;2.65;;
59054;SDS011;44845;51.444;7.460;2023-07-31T15:03:39;13.77;;;3.00;;
59054;SDS011;44845;51.444;7.460;2023-07-31T15:06:04;5.90;;;2.88;;
59054;SDS011;44845;51.444;7.460;2023-07-31T15:08:32;8.07;;;2.63;;